createdAt,value
2023-04-05T00:00:41.079Z,100
2023-04-05T00:15:40.428Z,100
2023-04-05T00:30:46.472Z,100
2023-04-05T00:45:42.237Z,100
2023-04-05T01:00:43.138Z,100
2023-04-05T01:15:42.802Z,100
2023-04-05T01:30:43.774Z,100
2023-04-05T01:45:43.700Z,100
2023-04-05T02:00:48.064Z,100
2023-04-05T02:15:45.928Z,100
2023-04-05T02:30:46.442Z,100
2023-04-05T02:45:47.691Z,100
2023-04-05T03:00:48.188Z,100
2023-04-05T03:15:48.724Z,100
2023-04-05T03:30:49.059Z,100
2023-04-05T03:45:49.760Z,100
2023-04-05T04:00:49.995Z,100
2023-04-05T04:15:51.984Z,100
2023-04-05T04:30:52.066Z,100
2023-04-05T04:42:03.134Z,100
2023-04-05T04:57:03.008Z,100
2023-04-05T05:12:04.052Z,100
2023-04-05T05:27:07.397Z,100
2023-04-05T05:42:05.602Z,100
2023-04-05T05:57:05.938Z,100
2023-04-05T06:12:06.844Z,100
2023-04-05T06:27:07.548Z,100
2023-04-05T06:42:08.396Z,100
2023-04-05T06:57:09.256Z,100
2023-04-05T07:12:09.537Z,100
2023-04-05T07:27:10.277Z,100
2023-04-05T07:42:10.746Z,100
2023-04-05T07:57:11.024Z,100
2023-04-05T08:12:12.333Z,100
2023-04-05T08:27:12.430Z,100
2023-04-05T08:42:13.435Z,100
2023-04-05T08:57:13.948Z,91.4
2023-04-05T09:12:14.845Z,86.7
2023-04-05T09:27:16.597Z,74.6
2023-04-05T09:42:16.268Z,68.9
2023-04-05T09:57:17.133Z,65.4
2023-04-05T10:12:18.294Z,60.3
2023-04-05T10:27:18.982Z,58.8
2023-04-05T10:42:19.286Z,56.4
2023-04-05T10:57:24.705Z,55.8
2023-04-05T11:12:20.371Z,50.2
2023-04-05T11:27:21.346Z,50.3
2023-04-05T11:42:21.886Z,45.8
2023-04-05T11:57:22.213Z,37.3
2023-04-05T12:12:27.677Z,40.1
2023-04-05T12:27:23.984Z,38.1
2023-04-05T12:42:23.452Z,36
2023-04-05T12:57:24.502Z,39.6
2023-04-05T13:12:26.560Z,35.6
2023-04-05T13:27:25.274Z,39.9
2023-04-05T13:42:26.391Z,39
2023-04-05T13:57:27.170Z,36.5
2023-04-05T14:12:27.728Z,39.1
2023-04-05T14:27:28.239Z,35.7
2023-04-05T14:42:50.816Z,33.8
2023-04-05T14:57:29.446Z,36.5
2023-04-05T15:12:31.383Z,36.6
2023-04-05T15:27:31.277Z,39.1
2023-04-05T15:42:32.160Z,40.2
2023-04-05T15:57:32.545Z,38.4
2023-04-05T16:12:36.031Z,38.4
2023-04-05T16:27:34.379Z,41.5
2023-04-05T16:42:35.026Z,41.2
2023-04-05T16:57:35.056Z,42.2
2023-04-05T17:12:35.569Z,43.2
2023-04-05T17:27:36.398Z,43
2023-04-05T17:42:36.645Z,45
2023-04-05T17:57:37.576Z,50.5
2023-04-05T18:12:37.712Z,53.1
2023-04-05T18:27:37.980Z,61.9
2023-04-05T18:42:39.259Z,56
2023-04-05T18:57:39.901Z,69.8
2023-04-05T19:12:40.855Z,73.6
2023-04-05T19:27:46.495Z,77.5
2023-04-05T19:42:41.688Z,99
2023-04-05T19:57:43.037Z,100
2023-04-05T20:12:43.903Z,100
2023-04-05T20:27:43.640Z,100
2023-04-05T20:42:44.387Z,100
2023-04-05T20:57:46.310Z,100
2023-04-05T21:12:45.779Z,100
2023-04-05T21:27:46.079Z,100
2023-04-05T21:42:47.548Z,100
2023-04-05T21:57:47.310Z,100
2023-04-05T22:00:42.907Z,100
2023-04-05T22:15:35.612Z,100
2023-04-05T22:30:44.923Z,100
2023-04-05T22:45:37.141Z,100
2023-04-05T23:00:38.416Z,100
2023-04-05T23:15:38.798Z,100
2023-04-05T23:30:38.624Z,100
2023-04-05T23:45:39.706Z,100
